TimeMST,TemperatureF,Dew PointF,Humidity,Sea Level PressureIn,VisibilityMPH,Wind Direction,Wind SpeedMPH,Gust SpeedMPH,PrecipitationIn,Events,Conditions,WindDirDegrees,DateUTC
12:53 AM,27.0,7.0,43,30.15,10.0,SW,23.0,-,N/A,,Clear,220,2013-01-20 07:53:00
1:53 AM,28.0,7.0,41,30.14,10.0,SW,23.0,-,N/A,,Clear,230,2013-01-20 08:53:00
2:53 AM,27.0,8.1,45,30.14,10.0,SW,18.4,-,N/A,,Clear,220,2013-01-20 09:53:00
3:53 AM,27.0,7.0,43,30.16,10.0,SW,16.1,26.5,N/A,,Clear,220,2013-01-20 10:53:00
4:53 AM,19.9,5.0,52,30.22,10.0,WSW,9.2,-,N/A,,Clear,240,2013-01-20 11:53:00
5:53 AM,19.0,5.0,54,30.25,10.0,West,10.4,-,N/A,,Clear,260,2013-01-20 12:53:00
6:53 AM,21.9,5.0,48,30.26,10.0,WSW,12.7,-,N/A,,Clear,250,2013-01-20 13:53:00
7:53 AM,19.9,5.0,52,30.31,10.0,West,5.8,-,N/A,,Clear,270,2013-01-20 14:53:00
8:53 AM,26.1,5.0,41,30.30,10.0,Calm,Calm,-,N/A,,Clear,0,2013-01-20 15:53:00
9:53 AM,25.0,10.9,55,30.29,10.0,East,3.5,-,N/A,,Clear,90,2013-01-20 16:53:00
10:53 AM,28.0,10.0,47,30.29,10.0,NNE,6.9,-,N/A,,Clear,30,2013-01-20 17:53:00
11:53 AM,28.0,15.1,58,30.25,10.0,NE,8.1,-,N/A,,Clear,50,2013-01-20 18:53:00
12:53 PM,30.9,15.1,52,30.20,10.0,NE,8.1,-,N/A,,Clear,50,2013-01-20 19:53:00
1:53 PM,33.1,16.0,50,30.16,10.0,ENE,10.4,-,N/A,,Clear,60,2013-01-20 20:53:00
2:53 PM,33.1,16.0,50,30.16,10.0,NNE,8.1,-,N/A,,Clear,30,2013-01-20 21:53:00
3:53 PM,30.9,17.1,57,30.17,10.0,ENE,10.4,-,N/A,,Clear,60,2013-01-20 22:53:00
4:53 PM,28.0,18.0,66,30.24,10.0,East,5.8,-,N/A,,Overcast,90,2013-01-20 23:53:00
5:53 PM,27.0,15.1,61,30.26,10.0,East,4.6,-,N/A,,Clear,90,2013-01-21 00:53:00
6:53 PM,27.0,12.9,56,30.25,10.0,Variable,4.6,-,N/A,,Clear,0,2013-01-21 01:53:00
7:53 PM,17.1,10.0,74,30.32,10.0,ENE,4.6,-,N/A,,Clear,60,2013-01-21 02:53:00
8:53 PM,17.1,8.1,68,30.30,10.0,ENE,5.8,-,N/A,,Clear,70,2013-01-21 03:53:00
9:53 PM,14.0,5.0,67,30.32,10.0,ENE,9.2,-,N/A,,Clear,60,2013-01-21 04:53:00
10:53 PM,17.1,6.1,62,30.28,10.0,ENE,8.1,-,N/A,,Clear,60,2013-01-21 05:53:00
11:53 PM,17.1,5.0,59,30.27,10.0,East,5.8,-,N/A,,Clear,90,2013-01-21 06:53:00